Latest Weather Observations for Gelantipy

IDV60801

Issued at 10:35 pm EST Thursday 17 April 2014 (issued every 30 minutes, with the page automatically refreshed every 10 minutes)

About weather observations | Map of weather stations | Latest weather observations for VIC | Other Formats
Station Details ID: 084142 Name: GELANTIPY Lat: -37.22 Lon: 148.26 Height: 755.0 m
Data from the previous 72 hours. | See also: Recent months at Gelantipy
Date/Time
EST
Temp
°C
App
Temp
°C
Dew
Point
Rel
Hum
%
Delta-T
°C
Wind Press
QNH
hPa
Press
MSL
hPa
Rain
since 9 am
mm
Dir
 
Spd
km/h
Gust
km/h
Spd
kts
Gust
kts
17/10:30pm 7.7 5.5 6.2 90 0.7 NNE 7 11 4 6 1019.6 - 0.0
17/10:00pm 8.5 7.8 7.1 91 0.7 W 0 0 0 0 1020.1 - 0.0
17/09:30pm 9.2 7.4 7.2 87 1.0 NNE 6 9 3 5 1020.1 - 0.0
17/09:00pm 8.8 7.3 6.9 88 0.9 NW 4 6 2 3 1020.1 1019.2 0.0
17/08:30pm 8.4 6.4 6.9 90 0.7 NNE 7 9 4 5 1020.1 - 0.0
17/08:00pm 8.9 8.3 7.2 89 0.8 CALM 0 0 0 0 1020.1 - 0.0
17/07:30pm 8.8 8.1 7.1 89 0.8 CALM 0 0 0 0 1020.1 - 0.0
17/07:00pm 9.8 9.2 7.4 85 1.2 CALM 0 0 0 0 1020.0 - 0.0
17/06:30pm 11.1 9.4 7.4 78 1.9 WNW 6 9 3 5 1020.0 - 0.0
17/06:00pm 12.2 10.6 7.9 75 2.2 W 6 7 3 4 1019.7 1018.9 0.0
17/05:30pm 13.4 11.8 8.0 70 2.8 S 6 7 3 4 1019.6 - 0.0
17/05:00pm 14.4 12.9 8.4 67 3.1 S 6 7 3 4 1019.6 - 0.0
17/04:30pm 14.8 13.0 8.1 64 3.5 S 7 11 4 6 1019.6 - 0.0
17/04:00pm 15.4 13.6 7.9 61 3.9 S 7 11 4 6 1019.6 - 0.0
17/03:30pm 15.3 13.2 8.1 62 3.8 SE 9 13 5 7 1019.9 - 0.0
17/03:00pm 15.5 13.2 7.3 58 4.2 S 9 17 5 9 1020.2 1019.3 0.0
17/02:30pm 15.8 13.7 8.1 60 4.0 SSW 9 13 5 7 1020.2 - 0.0
17/02:00pm 15.1 12.5 7.6 61 3.9 SSE 11 17 6 9 1020.2 - 0.0
17/01:30pm 15.4 12.7 7.4 59 4.1 S 11 15 6 8 1020.3 - 0.0
17/01:00pm 14.4 10.9 7.0 61 3.8 SW 15 22 8 12 1020.8 - 0.0
17/12:30pm 14.8 12.4 6.9 59 4.0 S 9 13 5 7 1020.9 - 0.0
17/12:00pm 14.7 12.2 8.4 66 3.3 SSE 11 20 6 11 1021.5 1020.7 0.0
17/11:30am 14.7 12.8 9.1 69 3.0 SW 9 17 5 9 1021.8 - 0.0
17/11:00am 13.7 11.4 7.5 66 3.2 SW 9 15 5 8 1021.9 - 0.0
17/10:30am 13.8 11.3 8.0 68 3.0 SSW 11 17 6 9 1021.9 - 0.0
17/10:00am 13.7 11.5 7.9 68 3.0 SSW 9 17 5 9 1021.8 - 0.0
17/09:30am 13.0 10.6 7.0 67 3.0 SW 9 13 5 7 1021.8 - 0.0
17/09:00am 12.6 10.7 6.9 68 2.8 SW 6 9 3 5 1021.8 1021.0 0.0
17/08:30am 11.7 11.3 8.2 79 1.8 CALM 0 0 0 0 1021.7 - 0.0
17/08:00am 10.1 8.5 7.9 86 1.1 NNE 6 7 3 4 1021.6 - 0.0
17/07:30am 8.3 6.7 6.3 87 1.0 NNE 4 6 2 3 1021.4 - 0.0
17/07:00am 7.7 6.7 5.7 87 0.9 CALM 0 0 0 0 1021.0 - 0.0
17/06:30am 7.8 6.8 5.8 87 0.9 N 0 0 0 0 1020.7 - 0.0
17/06:00am 7.4 6.0 5.7 89 0.8 N 2 7 1 4 1020.5 1019.7 0.0
17/05:30am 7.3 5.8 4.8 84 1.1 NNW 2 6 1 3 1020.2 - 0.0
17/05:00am 7.6 5.3 5.7 88 0.9 NNE 7 9 4 5 1020.0 - 0.0
17/04:30am 8.2 6.6 6.3 88 0.9 NE 4 6 2 3 1020.1 - 0.0
17/04:00am 7.6 6.7 6.1 90 0.7 CALM 0 0 0 0 1019.9 - 0.0
17/03:30am 7.3 5.0 5.9 91 0.7 NNE 7 9 4 5 1019.9 - 0.0
17/03:00am 7.0 4.8 5.5 90 0.7 NNE 6 7 3 4 1019.7 1018.9 0.0
17/02:30am 7.6 5.9 6.1 90 0.7 NNE 4 7 2 4 1019.9 - 0.0
17/02:00am 7.3 5.9 5.4 88 0.9 NNW 2 6 1 3 1019.9 - 0.0
17/01:30am 7.9 6.3 6.4 90 0.7 NNE 4 7 2 4 1020.1 - 0.0
17/01:00am 8.0 7.2 6.6 91 0.7 CALM 0 0 0 0 1020.3 - 0.0
17/12:30am 8.3 6.4 6.8 90 0.7 NNE 6 7 3 4 1020.4 - 0.0
17/12:00am 7.4 6.6 6.3 93 0.5 CALM 0 0 0 0 1020.6 1019.8 0.0
 
Date/Time
EST
Temp
°C
App
Temp
°C
Dew
Point
Rel
Hum
%
Delta-T
°C
Wind Press
QNH
hPa
Press
MSL
hPa
Rain
since 9 am
mm
Dir
 
Spd
km/h
Gust
km/h
Spd
kts
Gust
kts
16/11:30pm 7.5 6.4 6.9 96 0.3 W 2 6 1 3 1020.6 - 0.0
16/11:00pm 7.4 5.4 6.3 93 0.5 NNE 6 7 3 4 1020.8 - 0.0
16/10:30pm 8.2 6.7 7.0 92 0.6 WNW 4 7 2 4 1021.0 - 0.0
16/10:00pm 8.4 7.8 7.6 95 0.4 CALM 0 0 0 0 1021.0 - 0.0
16/09:30pm 9.0 8.4 7.6 91 0.7 CALM 0 0 0 0 1020.9 - 0.0
16/09:00pm 9.2 8.8 8.3 94 0.5 CALM 0 0 0 0 1020.8 1020.0 0.0
16/08:30pm 9.5 9.1 8.4 93 0.6 CALM 0 0 0 0 1020.8 - 0.0
16/08:00pm 9.8 8.7 8.4 91 0.7 NE 4 6 2 3 1020.6 - 0.0
16/07:30pm 9.4 8.9 8.0 91 0.7 CALM 0 0 0 0 1020.4 - 0.0
16/07:00pm 9.4 8.2 8.0 91 0.7 NW 4 9 2 5 1020.3 - 0.0
16/06:30pm 10.1 8.5 8.0 87 1.1 W 6 7 3 4 1020.1 - 0.0
16/06:00pm 11.4 11.1 8.6 83 1.4 CALM 0 0 0 0 1019.7 1018.9 0.0
16/05:30pm 12.1 10.4 8.4 78 1.9 SSW 7 13 4 7 1019.6 - 0.0
16/05:00pm 13.3 11.5 8.0 70 2.7 S 7 11 4 6 1019.4 - 0.0
16/04:30pm 14.2 12.1 8.2 67 3.1 S 9 15 5 8 1019.2 - 0.0
16/04:00pm 14.6 12.4 7.9 64 3.5 S 9 13 5 7 1019.1 - 0.0
16/03:30pm 14.8 12.1 7.4 61 3.8 S 11 15 6 8 1019.3 - 0.0
16/03:00pm 14.8 12.2 7.6 62 3.7 S 11 19 6 10 1019.3 1018.5 0.0
16/02:30pm 14.7 12.5 8.0 64 3.5 S 9 17 5 9 1019.3 - 0.0
16/02:00pm 15.1 13.8 7.6 61 3.9 SSW 4 7 2 4 1019.4 - 0.0
16/01:30pm 15.6 14.5 8.4 62 3.8 S 4 7 2 4 1019.6 - 0.0
16/01:00pm 14.8 12.9 9.2 69 3.0 NNE 9 13 5 7 1020.0 - 0.0
16/12:30pm 14.0 11.9 8.2 68 3.0 NE 9 15 5 8 1020.3 - 0.0
16/12:00pm 13.3 10.8 8.2 71 2.6 NE 11 17 6 9 1020.7 1019.9 0.0
16/11:30am 12.4 9.1 7.9 74 2.3 NE 15 19 8 10 1021.1 - 0.0
16/11:00am 12.0 8.7 8.1 77 2.0 N 15 20 8 11 1021.4 - 0.0
16/10:30am 11.3 7.2 7.8 79 1.8 NNE 19 24 10 13 1021.6 - 0.0
16/10:00am 10.5 6.4 7.7 83 1.4 N 19 24 10 13 1021.9 - 0.0
16/09:30am 10.0 5.9 7.9 87 1.1 N 19 24 10 13 1022.1 - 0.0
16/09:00am 9.2 5.0 7.5 89 0.8 NNE 19 24 10 13 1022.2 1021.4 1.8
16/08:30am 8.6 4.7 7.2 91 0.7 N 17 22 9 12 1022.4 - 1.8
16/08:00am 8.0 4.5 7.4 96 0.3 N 15 19 8 10 1022.4 - 1.8
16/07:30am 7.3 4.5 6.9 97 0.2 N 11 17 6 9 1022.2 - 1.8
16/07:00am 7.0 4.6 6.9 99 0.0 N 9 13 5 7 1022.0 - 1.8
16/06:30am 6.1 3.5 6.0 99 0.0 N 9 13 5 7 1021.7 - 1.8
16/06:00am 5.5 3.1 5.4 99 0.0 NNE 7 9 4 5 1021.6 1020.8 1.8
16/05:30am 6.1 3.9 6.0 99 0.0 N 7 9 4 5 1021.6 - 1.6
16/05:00am 6.2 4.2 6.1 99 0.0 N 6 7 3 4 1021.6 - 1.6
16/04:30am 6.9 4.9 6.9 100 0.0 NNE 7 9 4 5 1021.4 - 1.6
16/04:00am 5.5 3.7 5.2 98 0.1 N 4 9 2 5 1021.6 - 1.6
16/03:30am 5.5 3.1 5.2 98 0.1 NNE 7 9 4 5 1021.6 - 1.6
16/03:00am 6.0 5.0 5.4 96 0.3 CALM 0 2 0 1 1021.8 1021.0 1.6
16/02:30am 6.6 4.4 6.3 98 0.1 NNE 7 9 4 5 1021.9 - 1.6
16/02:00am 7.4 5.6 7.0 97 0.2 NNE 6 7 3 4 1022.2 - 1.6
16/01:30am 8.2 7.7 7.9 98 0.1 CALM 0 0 0 0 1022.6 - 1.6
16/01:00am 8.7 8.3 8.4 98 0.2 CALM 0 0 0 0 1022.9 - 1.6
16/12:30am 8.8 8.5 8.5 98 0.2 CALM 0 0 0 0 1023.0 - 1.6
16/12:00am 8.9 8.6 8.6 98 0.2 CALM 0 0 0 0 1023.3 1022.5 1.6
 
Date/Time
EST
Temp
°C
App
Temp
°C
Dew
Point
Rel
Hum
%
Delta-T
°C
Wind Press
QNH
hPa
Press
MSL
hPa
Rain
since 9 am
mm
Dir
 
Spd
km/h
Gust
km/h
Spd
kts
Gust
kts
15/11:30pm 9.1 8.8 8.8 98 0.2 CALM 0 0 0 0 1023.5 - 1.6
15/11:00pm 9.0 8.7 8.5 97 0.3 CALM 0 0 0 0 1023.8 - 1.6
15/10:30pm 9.0 8.7 8.5 97 0.3 CALM 0 0 0 0 1024.0 - 1.6
15/10:00pm 9.0 7.3 8.4 96 0.3 WNW 7 7 4 4 1024.3 - 1.6
15/09:30pm 9.1 7.5 8.6 97 0.3 WNW 7 7 4 4 1024.2 - 1.6
15/09:00pm 9.2 7.6 8.6 96 0.3 WNW 7 9 4 5 1024.0 1023.3 1.6
15/08:30pm 9.2 8.1 8.6 96 0.3 SW 4 7 2 4 1023.9 - 1.6
15/08:00pm 9.2 7.6 8.7 97 0.3 W 7 9 4 5 1023.8 - 1.6
15/07:30pm 9.2 7.6 8.9 98 0.2 W 7 9 4 5 1023.8 - 1.6
15/07:00pm 9.3 9.0 8.8 97 0.3 CALM 0 0 0 0 1023.8 - 1.6
15/06:30pm 9.2 7.6 8.7 97 0.3 WNW 7 9 4 5 1023.6 - 1.6
15/06:00pm 9.1 7.1 8.6 97 0.3 SE 9 13 5 7 1023.3 1022.5 1.6
15/05:30pm 9.5 6.9 9.2 98 0.2 SSE 13 19 7 10 1023.0 - 1.4
15/05:00pm 9.9 8.7 9.6 98 0.2 SSE 6 11 3 6 1022.9 - 1.4
15/04:30pm 10.0 7.4 9.4 96 0.3 SE 13 20 7 11 1022.6 - 0.8
15/04:00pm 10.8 9.2 10.2 96 0.3 S 9 11 5 6 1022.5 - 0.2
15/03:30pm 10.9 9.4 10.4 97 0.3 SSW 9 13 5 7 1022.5 - 0.2
15/03:00pm 10.7 9.5 10.2 97 0.3 SSW 7 11 4 6 1022.6 1021.9 0.2
15/02:30pm 11.0 9.1 10.4 96 0.3 SW 11 13 6 7 1022.5 - 0.0
15/02:00pm 10.9 9.7 10.3 96 0.3 SW 7 13 4 7 1022.4 - 0.0
15/01:30pm 11.1 9.4 9.7 91 0.7 SW 9 13 5 7 1022.5 - 0.0
15/01:00pm 11.3 9.4 9.2 87 1.1 SSW 9 15 5 8 1022.6 - 0.0
15/12:30pm 11.1 9.1 8.7 85 1.2 SW 9 11 5 6 1023.0 - 0.0
15/12:00pm 11.1 9.1 8.7 85 1.2 SSW 9 15 5 8 1023.5 1022.7 0.0
15/11:30am 11.3 8.8 8.2 81 1.6 SSW 11 15 6 8 1023.7 - 0.0
15/11:00am 11.9 9.6 7.6 75 2.2 WSW 9 13 5 7 1023.8 - 0.0
15/10:30am 11.6 11.0 8.8 83 1.5 W 2 7 1 4 1023.8 - 0.0
15/10:00am 10.8 9.8 7.3 79 1.7 WSW 2 6 1 3 1023.9 - 0.0
15/09:30am 10.3 8.4 7.4 82 1.4 SSE 7 9 4 5 1024.0 - 0.0
15/09:00am 10.5 9.1 7.2 80 1.6 SE 4 7 2 4 1024.0 1023.3 0.0
15/08:30am 10.0 9.4 7.3 83 1.3 CALM 0 0 0 0 1023.8 - 0.0
15/08:00am 9.4 8.0 7.3 87 1.0 N 4 7 2 4 1023.7 - 0.0
15/07:30am 8.6 7.6 7.4 92 0.6 NNE 2 7 1 4 1023.5 - 0.0
15/07:00am 8.3 7.7 7.4 94 0.4 CALM 0 0 0 0 1023.3 - 0.0
15/06:30am 8.3 6.9 7.2 93 0.5 N 4 7 2 4 1023.2 - 0.0
15/06:00am 7.8 5.9 6.7 93 0.5 NE 6 7 3 4 1023.1 1022.3 0.0
15/05:30am 7.7 6.6 7.0 95 0.3 SSE 2 7 1 4 1023.0 - 0.0
15/05:00am 7.5 6.8 6.9 96 0.3 CALM 0 0 0 0 1022.9 - 0.0
15/04:30am 7.4 6.6 6.5 94 0.4 CALM 0 0 0 0 1022.6 - 0.0
15/04:00am 7.3 6.5 6.4 94 0.4 CALM 0 0 0 0 1022.5 - 0.0
15/03:30am 7.5 6.3 6.6 94 0.4 NE 2 7 1 4 1022.4 - 0.0
15/03:00am 8.1 7.5 7.2 94 0.4 CALM 0 0 0 0 1022.6 1021.9 0.0
15/02:30am 7.8 7.0 6.6 92 0.6 CALM 0 0 0 0 1022.9 - 0.0
15/02:00am 7.9 7.2 7.0 94 0.4 CALM 0 0 0 0 1023.1 - 0.0
15/01:30am 7.8 7.0 6.7 93 0.5 CALM 0 0 0 0 1023.2 - 0.0
15/01:00am 7.5 5.4 6.6 94 0.4 NE 7 11 4 6 1023.3 - 0.0
15/12:30am 7.0 5.0 6.3 95 0.3 NNE 6 9 3 5 1023.3 - 0.0
15/12:00am 7.6 6.9 6.9 95 0.3 CALM 0 0 0 0 1023.4 1022.6 0.0
 
Date/Time
EST
Temp
°C
App
Temp
°C
Dew
Point
Rel
Hum
%
Delta-T
°C
Wind Press
QNH
hPa
Press
MSL
hPa
Rain
since 9 am
mm
Dir
 
Spd
km/h
Gust
km/h
Spd
kts
Gust
kts
14/11:30pm 8.4 7.8 7.5 94 0.4 CALM 0 0 0 0 1023.5 - 0.0
14/11:00pm 8.6 6.7 7.5 93 0.5 N 7 9 4 5 1023.6 - 0.0

Other Formats:

Comma delimited format used in spreadsheet applications
http://www.bom.gov.au/fwo/IDV60801/IDV60801.94913.axf

JavaScript Object Notation format (JSON) in row-major order
http://www.bom.gov.au/fwo/IDV60801/IDV60801.94913.json